TimeMST,TemperatureF,Dew PointF,Humidity,Sea Level PressureIn,VisibilityMPH,Wind Direction,Wind SpeedMPH,Gust SpeedMPH,PrecipitationIn,Events,Conditions,WindDirDegrees,DateUTC
12:53 AM,35.1,26.1,70,30.01,9.0,SW,11.5,-,0.00,Snow,Light Snow,220,2012-12-03 07:53:00
1:53 AM,34.0,25.0,70,30.03,9.0,South,11.5,-,0.00,Snow,Light Snow,190,2012-12-03 08:53:00
2:53 AM,34.0,24.1,67,30.08,10.0,South,9.2,-,0.00,,Clear,180,2012-12-03 09:53:00
3:53 AM,33.1,24.1,70,30.08,10.0,SSW,10.4,-,0.00,,Clear,200,2012-12-03 10:53:00
4:53 AM,33.1,23.0,66,30.10,10.0,South,9.2,-,0.00,,Clear,190,2012-12-03 11:53:00
6:53 AM,33.1,21.0,61,30.14,10.0,South,10.4,-,0.00,,Clear,180,2012-12-03 13:53:00
8:53 AM,36.0,23.0,59,30.16,10.0,South,8.1,-,N/A,,Clear,190,2012-12-03 15:53:00
9:53 AM,37.9,21.9,53,30.18,9.0,ESE,6.9,-,N/A,,Clear,120,2012-12-03 16:53:00
10:53 AM,43.0,25.0,49,30.17,10.0,South,12.7,-,N/A,,Clear,180,2012-12-03 17:53:00
11:53 AM,46.0,25.0,44,30.17,10.0,South,12.7,-,N/A,,Clear,170,2012-12-03 18:53:00
12:53 PM,46.9,25.0,42,30.17,10.0,SSW,8.1,-,N/A,,Clear,210,2012-12-03 19:53:00
1:53 PM,48.0,23.0,37,30.16,10.0,SSW,5.8,-,N/A,,Clear,210,2012-12-03 20:53:00
2:53 PM,46.9,25.0,42,30.16,10.0,WSW,4.6,-,N/A,,Mostly Cloudy,250,2012-12-03 21:53:00
3:53 PM,46.9,26.1,44,30.17,10.0,Calm,Calm,-,N/A,,Mostly Cloudy,0,2012-12-03 22:53:00
4:53 PM,44.1,26.1,49,30.19,10.0,Calm,Calm,-,N/A,,Clear,0,2012-12-03 23:53:00
5:53 PM,33.1,25.0,72,30.22,10.0,East,3.5,-,N/A,,Clear,90,2012-12-04 00:53:00
6:53 PM,34.0,26.1,73,30.23,9.0,ESE,6.9,-,0.00,Snow,Light Snow,120,2012-12-04 01:53:00
7:53 PM,32.0,25.0,75,30.24,10.0,SE,8.1,-,0.00,,Clear,140,2012-12-04 02:53:00
8:53 PM,33.1,25.0,72,30.22,10.0,SE,8.1,-,N/A,,Clear,140,2012-12-04 03:53:00
9:53 PM,34.0,25.0,70,30.20,10.0,SSE,10.4,-,N/A,,Clear,160,2012-12-04 04:53:00
11:53 PM,35.1,24.1,64,30.17,10.0,Calm,Calm,-,N/A,,Clear,0,2012-12-04 06:53:00